Time;durP1;ratioP1;P1;durP2;ratioP2;P2;SDS_P1;SDS_P2;PMS_P1;PMS_P2;Temp;Humidity;BMP_temperature;BMP_pressure;BME280_temperature;BME280_humidity;BME280_pressure;Samples;Min_cycle;Max_cycle;Signal;HPM_P1;HPM_P2
2022/01/16 00:01:44;;;;;;;0.10;0.10;;;3.10;99.90;;;;;;5148401;28;20515;-77
2022/01/16 00:04:09;;;;;;;0.10;0.10;;;3.60;99.90;;;;;;5136174;28;20074;-78
2022/01/16 00:06:38;;;;;;;0.10;0.10;;;3.50;99.90;;;;;;5112241;28;20071;-79
2022/01/16 00:09:06;;;;;;;0.10;0.10;;;3.10;99.90;;;;;;5131211;28;20040;-77
2022/01/16 00:11:33;;;;;;;0.10;0.10;;;3.10;99.90;;;;;;5131003;28;20040;-77
2022/01/16 00:14:00;;;;;;;0.10;0.10;;;3.10;99.90;;;;;;5148464;28;20032;-77
2022/01/16 00:16:26;;;;;;;0.10;0.10;;;3.10;99.90;;;;;;5114090;28;20495;-77
2022/01/16 00:18:53;;;;;;;0.10;0.10;;;3.00;99.90;;;;;;5131282;28;20161;-77
2022/01/16 00:21:23;;;;;;;0.20;0.20;;;2.90;99.90;;;;;;5147284;28;20530;-78
2022/01/16 00:23:51;;;;;;;0.10;0.10;;;3.10;99.90;;;;;;5131771;28;20034;-78
2022/01/16 00:26:18;;;;;;;0.10;0.10;;;2.90;99.90;;;;;;5147202;28;20412;-78
2022/01/16 00:28:46;;;;;;;0.88;0.80;;;2.80;99.90;;;;;;5131010;28;20105;-77
2022/01/16 00:31:13;;;;;;;0.20;0.20;;;2.80;99.90;;;;;;5130941;28;20039;-78
2022/01/16 00:33:42;;;;;;;0.10;0.10;;;2.70;99.90;;;;;;5114018;28;20061;-78
2022/01/16 00:36:12;;;;;;;0.17;0.17;;;2.70;99.90;;;;;;5147613;28;20036;-77
2022/01/16 00:38:40;;;;;;;0.10;0.10;;;3.20;99.90;;;;;;5129985;28;20474;-77
2022/01/16 00:41:07;;;;;;;0.10;0.10;;;2.60;99.90;;;;;;5129781;28;20075;-77
2022/01/16 00:43:34;;;;;;;0.10;0.10;;;2.70;99.90;;;;;;5147119;28;20529;-78
2022/01/16 00:46:01;;;;;;;0.10;0.10;;;2.70;99.90;;;;;;5113840;28;20047;-78
2022/01/16 00:48:27;;;;;;;0.10;0.10;;;2.60;99.90;;;;;;5130426;28;20074;-78
2022/01/16 00:50:54;;;;;;;0.10;0.10;;;2.50;99.90;;;;;;5130954;28;20522;-78
2022/01/16 00:53:21;;;;;;;0.10;0.10;;;2.50;99.90;;;;;;5130115;28;20407;-78
2022/01/16 00:55:48;;;;;;;0.30;0.30;;;2.60;99.90;;;;;;5130102;28;20131;-78
2022/01/16 00:58:14;;;;;;;0.10;0.10;;;2.40;99.90;;;;;;5130612;28;20051;-77
2022/01/16 01:00:41;;;;;;;0.30;0.30;;;2.40;99.90;;;;;;5130012;28;20488;-77
2022/01/16 01:03:08;;;;;;;0.10;0.10;;;2.40;99.90;;;;;;5147277;28;20388;-77
2022/01/16 01:05:35;;;;;;;0.20;0.20;;;2.50;99.90;;;;;;5146789;28;20040;-78
2022/01/16 01:08:04;;;;;;;0.10;0.10;;;2.30;99.90;;;;;;5130672;28;20039;-77
2022/01/16 01:10:34;;;;;;;0.10;0.10;;;2.30;99.90;;;;;;5146873;28;20123;-77
2022/01/16 01:13:09;;;;;;;0.20;0.20;;;2.30;99.90;;;;;;5130237;28;20050;-77
2022/01/16 01:15:43;;;;;;;0.20;0.20;;;2.40;99.90;;;;;;5146608;28;20047;-79
2022/01/16 01:18:10;;;;;;;0.20;0.20;;;2.20;99.90;;;;;;5129835;28;20043;-77
2022/01/16 01:20:40;;;;;;;0.10;0.10;;;2.50;99.90;;;;;;5146471;28;20567;-78
2022/01/16 01:23:08;;;;;;;0.10;0.10;;;2.20;99.90;;;;;;5130229;28;20039;-78
2022/01/16 01:25:35;;;;;;;0.10;0.10;;;2.60;99.90;;;;;;5129093;28;20836;-77
2022/01/16 01:28:03;;;;;;;0.10;0.10;;;2.20;99.90;;;;;;5129887;28;20096;-77
2022/01/16 01:30:30;;;;;;;0.20;0.20;;;2.20;99.90;;;;;;5129237;28;20090;-78
2022/01/16 01:32:58;;;;;;;0.10;0.10;;;2.30;99.90;;;;;;5129567;28;20086;-79
2022/01/16 01:35:25;;;;;;;0.13;0.13;;;2.80;99.90;;;;;;5129082;28;20522;-77
2022/01/16 01:37:52;;;;;;;0.60;0.60;;;2.20;99.90;;;;;;5129719;28;20046;-78
2022/01/16 01:40:22;;;;;;;0.20;0.20;;;2.30;99.90;;;;;;5112740;28;20093;-77
2022/01/16 01:43:03;;;;;;;0.20;0.20;;;2.50;99.90;;;;;;5129597;28;20042;-77
2022/01/16 01:51:17;;;;;;;0.10;0.10;;;2.00;99.90;;;;;;5145607;28;20699;-78
2022/01/16 01:53:44;;;;;;;0.20;0.20;;;2.00;99.90;;;;;;5129109;28;20051;-78
2022/01/16 01:56:17;;;;;;;0.10;0.10;;;1.90;99.90;;;;;;5129306;28;20035;-79
2022/01/16 01:58:44;;;;;;;0.10;0.10;;;1.90;99.90;;;;;;5128721;28;20051;-79
2022/01/16 02:01:11;;;;;;;0.20;0.20;;;1.80;99.90;;;;;;5112487;28;20043;-77
2022/01/16 02:06:18;;;;;;;0.20;0.20;;;1.80;99.90;;;;;;5146484;28;20059;-77
2022/01/16 02:08:51;;;;;;;0.30;0.30;;;1.70;99.90;;;;;;5145491;28;20062;-78
2022/01/16 02:11:20;;;;;;;0.10;0.10;;;1.70;99.90;;;;;;5129056;28;20039;-77
2022/01/16 02:13:56;;;;;;;0.10;0.10;;;1.70;99.90;;;;;;5145383;28;20055;-77
2022/01/16 02:35:47;;;;;;;0.10;0.10;;;1.80;99.90;;;;;;5110109;28;20058;-78
2022/01/16 02:38:14;;;;;;;0.10;0.10;;;1.80;99.90;;;;;;5112844;28;20047;-77
2022/01/16 02:40:48;;;;;;;0.10;0.10;;;2.40;99.90;;;;;;5128316;28;20381;-79
2022/01/16 02:43:17;;;;;;;0.15;0.15;;;1.70;99.90;;;;;;5128884;28;20047;-77
2022/01/16 02:45:58;;;;;;;0.10;0.10;;;1.70;99.90;;;;;;5128674;28;20040;-77
2022/01/16 02:48:24;;;;;;;0.20;0.20;;;1.70;99.90;;;;;;5128505;28;20492;-77
2022/01/16 02:50:51;;;;;;;0.10;0.10;;;1.90;99.90;;;;;;5127563;28;20077;-77
2022/01/16 02:53:18;;;;;;;0.10;0.10;;;1.80;99.90;;;;;;5128164;28;20046;-77
2022/01/16 02:55:45;;;;;;;0.20;0.20;;;1.70;99.90;;;;;;5171501;27;20051;-77
2022/01/16 02:58:12;;;;;;;0.20;0.20;;;1.80;99.90;;;;;;5145631;28;20122;-79
2022/01/16 03:00:38;;;;;;;0.20;0.20;;;1.70;99.90;;;;;;5111285;28;20502;-78
2022/01/16 03:03:05;;;;;;;0.10;0.10;;;1.80;99.90;;;;;;5113065;28;20038;-77
2022/01/16 03:05:33;;;;;;;0.20;0.20;;;1.80;99.90;;;;;;5166645;27;20570;-77
2022/01/16 03:08:00;;;;;;;0.20;0.20;;;1.70;99.90;;;;;;5149198;28;20047;-77
2022/01/16 03:12:59;;;;;;;0.10;0.10;;;1.70;99.90;;;;;;5149583;28;20051;-78
2022/01/16 03:15:26;;;;;;;0.10;0.10;;;1.70;99.90;;;;;;5149580;28;20039;-77
2022/01/16 03:23:12;;;;;;;0.10;0.10;;;1.70;99.90;;;;;;5149517;28;20122;-77
2022/01/16 03:25:39;;;;;;;0.10;0.10;;;2.10;99.90;;;;;;5148972;28;20583;-77
2022/01/16 03:28:06;;;;;;;0.10;0.10;;;1.60;99.90;;;;;;5132366;28;20542;-78
2022/01/16 03:30:33;;;;;;;0.20;0.20;;;1.70;99.90;;;;;;5132018;28;20071;-79
2022/01/16 03:33:00;;;;;;;0.20;0.20;;;1.60;99.90;;;;;;5166015;27;20050;-79
2022/01/16 03:35:26;;;;;;;0.20;0.20;;;1.60;99.90;;;;;;5166288;27;20040;-77
2022/01/16 03:37:53;;;;;;;0.10;0.10;;;1.70;99.90;;;;;;5131598;28;20495;-78
2022/01/16 03:40:21;;;;;;;0.20;0.20;;;1.80;99.90;;;;;;5114991;28;20172;-79
2022/01/16 03:42:49;;;;;;;0.10;0.10;;;1.70;99.90;;;;;;5165315;27;20496;-79
2022/01/16 03:45:16;;;;;;;0.20;0.20;;;2.10;99.90;;;;;;5149176;28;20092;-77
2022/01/16 03:47:43;;;;;;;0.10;0.10;;;1.70;99.90;;;;;;5165249;27;20464;-79
2022/01/16 03:50:11;;;;;;;0.20;0.20;;;1.70;99.90;;;;;;5148941;28;20191;-78
2022/01/16 03:52:41;;;;;;;0.20;0.20;;;1.80;99.90;;;;;;5165730;27;20035;-79
2022/01/16 03:55:08;;;;;;;0.20;0.20;;;1.80;99.90;;;;;;5131984;28;20036;-79
2022/01/16 03:57:36;;;;;;;1.60;1.50;;;1.70;99.90;;;;;;5165686;27;20044;-77
2022/01/16 04:00:06;;;;;;;0.13;0.13;;;1.80;99.90;;;;;;5165335;27;20042;-79
2022/01/16 04:02:32;;;;;;;0.10;0.10;;;1.80;99.90;;;;;;5165683;27;20044;-78
2022/01/16 04:04:59;;;;;;;0.20;0.20;;;1.80;99.90;;;;;;5114166;28;20043;-77
2022/01/16 04:07:31;;;;;;;0.10;0.10;;;1.80;99.90;;;;;;5131861;28;20078;-79
2022/01/16 04:09:58;;;;;;;0.13;0.13;;;1.80;99.90;;;;;;5165121;27;20040;-78
2022/01/16 04:12:25;;;;;;;0.10;0.10;;;1.80;99.90;;;;;;5148457;27;20054;-78
2022/01/16 04:17:21;;;;;;;0.20;0.20;;;2.10;99.90;;;;;;5147991;28;20047;-79
2022/01/16 04:19:49;;;;;;;0.17;0.17;;;2.20;99.90;;;;;;5148065;28;20039;-77
2022/01/16 04:22:17;;;;;;;0.30;0.30;;;1.80;99.90;;;;;;5147921;28;20031;-77
2022/01/16 04:24:44;;;;;;;0.20;0.20;;;2.40;99.90;;;;;;5147975;28;20039;-77
2022/01/16 04:27:12;;;;;;;0.10;0.10;;;1.80;99.90;;;;;;5164882;27;20511;-77
2022/01/16 04:29:41;;;;;;;0.15;0.15;;;1.80;99.90;;;;;;5148042;28;20126;-77
2022/01/16 04:32:08;;;;;;;0.20;0.20;;;1.80;99.90;;;;;;5165020;27;20055;-77
2022/01/16 04:34:35;;;;;;;0.20;0.20;;;1.80;99.90;;;;;;5130812;28;20055;-77
2022/01/16 04:37:02;;;;;;;8.77;0.85;;;2.70;99.90;;;;;;5164501;27;20073;-79
2022/01/16 04:39:34;;;;;;;0.10;0.10;;;1.80;99.90;;;;;;5164948;27;20066;-78
2022/01/16 04:44:49;;;;;;;0.10;0.10;;;1.90;99.90;;;;;;5147639;28;20096;-77
2022/01/16 04:47:16;;;;;;;0.15;0.15;;;1.90;99.90;;;;;;5164697;27;20082;-77
2022/01/16 04:49:42;;;;;;;0.10;0.10;;;1.90;99.90;;;;;;5114162;28;20079;-77
2022/01/16 04:52:09;;;;;;;0.10;0.10;;;1.90;99.90;;;;;;5147415;28;20043;-77
2022/01/16 04:54:36;;;;;;;0.20;0.20;;;1.90;99.90;;;;;;5181840;27;20035;-77
2022/01/16 04:57:03;;;;;;;0.43;0.43;;;1.90;99.90;;;;;;5164660;27;20089;-77
2022/01/16 04:59:30;;;;;;;0.20;0.20;;;2.00;99.90;;;;;;5130795;28;20051;-78
2022/01/16 05:01:56;;;;;;;0.10;0.10;;;2.10;99.90;;;;;;5147308;28;20127;-79
2022/01/16 05:04:23;;;;;;;0.10;0.10;;;2.20;99.90;;;;;;5147343;27;20043;-78
2022/01/16 05:06:50;;;;;;;0.10;0.10;;;2.50;99.90;;;;;;5147117;28;20075;-78
2022/01/16 05:09:16;;;;;;;0.10;0.10;;;2.00;99.90;;;;;;5164482;27;20119;-78
2022/01/16 05:11:45;;;;;;;0.10;0.10;;;2.10;99.90;;;;;;5130265;28;20508;-78
2022/01/16 05:16:57;;;;;;;0.47;0.45;;;2.10;99.90;;;;;;5132217;28;20419;-77
2022/01/16 05:19:23;;;;;;;0.10;0.10;;;2.10;99.90;;;;;;5130272;28;20043;-78
2022/01/16 05:21:50;;;;;;;0.32;0.32;;;2.20;99.90;;;;;;5129980;28;20035;-77
2022/01/16 05:24:17;;;;;;;0.20;0.20;;;2.10;99.90;;;;;;5129773;28;20039;-79
2022/01/16 05:26:44;;;;;;;0.10;0.10;;;2.10;99.90;;;;;;5112053;28;20496;-79
2022/01/16 05:29:12;;;;;;;0.20;0.20;;;2.20;99.90;;;;;;5146194;28;20043;-77
2022/01/16 05:31:46;;;;;;;0.10;0.10;;;2.20;99.90;;;;;;5129847;28;20042;-79
2022/01/16 05:34:15;;;;;;;0.10;0.10;;;2.20;99.90;;;;;;5130503;28;20036;-79
2022/01/16 05:36:41;;;;;;;0.10;0.10;;;2.40;99.90;;;;;;5146657;28;20124;-77
2022/01/16 05:39:08;;;;;;;0.10;0.10;;;2.20;99.90;;;;;;5163532;27;20093;-77
2022/01/16 05:41:35;;;;;;;1.10;0.80;;;2.20;99.90;;;;;;5113154;28;20043;-77
2022/01/16 05:44:02;;;;;;;0.20;0.20;;;2.30;99.90;;;;;;5180775;27;20032;-78
2022/01/16 05:46:29;;;;;;;0.10;0.10;;;2.30;99.90;;;;;;5163469;27;20050;-78
2022/01/16 05:48:56;;;;;;;0.20;0.20;;;2.30;99.90;;;;;;5146008;28;20039;-78
2022/01/16 05:51:22;;;;;;;0.10;0.10;;;2.30;99.90;;;;;;5163827;27;20047;-79
2022/01/16 05:53:51;;;;;;;0.43;0.43;;;2.40;99.90;;;;;;5146334;28;20047;-77
2022/01/16 05:56:17;;;;;;;0.10;0.10;;;2.30;99.90;;;;;;5146012;28;20040;-79
2022/01/16 05:58:44;;;;;;;0.10;0.10;;;2.30;99.90;;;;;;5129292;28;20426;-77
2022/01/16 06:01:11;;;;;;;0.20;0.20;;;2.50;99.90;;;;;;5145703;28;20576;-77
2022/01/16 06:03:37;;;;;;;0.10;0.10;;;2.70;99.90;;;;;;5146267;28;20076;-77
2022/01/16 06:06:04;;;;;;;0.20;0.20;;;2.50;99.90;;;;;;5145872;28;20043;-77
2022/01/16 06:08:31;;;;;;;0.17;0.17;;;2.40;99.90;;;;;;5112205;28;20071;-78
2022/01/16 06:10:58;;;;;;;0.10;0.10;;;2.40;99.90;;;;;;5163029;27;20036;-78
2022/01/16 06:13:24;;;;;;;0.13;0.13;;;2.40;99.90;;;;;;5129351;28;20551;-78
2022/01/16 06:15:51;;;;;;;0.20;0.20;;;2.40;99.90;;;;;;5162912;27;20032;-77
2022/01/16 06:18:18;;;;;;;0.13;0.13;;;2.50;99.90;;;;;;5128781;28;20134;-77
2022/01/16 06:20:44;;;;;;;0.10;0.10;;;2.50;99.90;;;;;;5128799;28;20082;-77
2022/01/16 06:23:12;;;;;;;0.10;0.10;;;2.90;99.90;;;;;;5128696;28;20088;-78
2022/01/16 06:25:38;;;;;;;0.10;0.10;;;2.50;99.90;;;;;;5128680;28;20043;-78
2022/01/16 06:28:06;;;;;;;0.20;0.20;;;3.00;99.90;;;;;;5111722;28;20051;-77
2022/01/16 06:30:33;;;;;;;0.10;0.10;;;2.50;99.90;;;;;;5163419;27;20122;-79
2022/01/16 06:33:03;;;;;;;0.10;0.10;;;2.50;99.90;;;;;;5129183;28;20092;-77
2022/01/16 06:35:29;;;;;;;0.10;0.10;;;2.50;99.90;;;;;;5145988;28;20046;-79
2022/01/16 06:37:56;;;;;;;0.10;0.10;;;2.50;99.90;;;;;;5111849;28;20047;-77
2022/01/16 06:40:23;;;;;;;0.10;0.10;;;2.60;99.90;;;;;;5128455;28;20118;-77
2022/01/16 06:42:50;;;;;;;0.10;0.10;;;2.60;99.90;;;;;;5145436;28;20050;-79
2022/01/16 06:45:16;;;;;;;2.08;0.40;;;2.60;99.90;;;;;;5162327;28;20314;-79
2022/01/16 06:47:43;;;;;;;0.20;0.20;;;3.20;99.90;;;;;;5145673;28;20060;-79
2022/01/16 06:50:10;;;;;;;0.20;0.20;;;2.60;99.90;;;;;;5145387;28;20058;-77
2022/01/16 06:52:37;;;;;;;0.10;0.10;;;2.70;99.90;;;;;;5163009;28;20047;-77
2022/01/16 06:55:04;;;;;;;0.10;0.10;;;2.70;99.90;;;;;;5145254;28;20373;-77
2022/01/16 06:57:31;;;;;;;4.03;0.55;;;2.70;99.90;;;;;;5162320;28;20051;-79
2022/01/16 06:59:58;;;;;;;0.10;0.10;;;2.70;99.90;;;;;;5145588;28;20054;-79
2022/01/16 07:02:24;;;;;;;0.10;0.10;;;2.80;99.90;;;;;;5128081;28;20123;-77
2022/01/16 07:04:51;;;;;;;0.10;0.10;;;3.00;99.90;;;;;;5145671;28;20089;-77
2022/01/16 07:07:18;;;;;;;0.10;0.10;;;3.30;99.90;;;;;;5145029;28;20530;-79
2022/01/16 07:09:45;;;;;;;0.10;0.10;;;2.90;99.90;;;;;;5094814;28;20765;-78
2022/01/16 07:12:12;;;;;;;0.20;0.20;;;3.10;99.90;;;;;;5108056;28;20032;-79
2022/01/16 07:14:39;;;;;;;0.20;0.20;;;2.80;99.90;;;;;;5124647;28;20113;-79
2022/01/16 07:17:06;;;;;;;0.10;0.10;;;3.40;99.90;;;;;;5125267;28;20066;-79
2022/01/16 07:19:32;;;;;;;0.17;0.17;;;2.80;99.90;;;;;;5141987;28;20393;-79
2022/01/16 07:21:59;;;;;;;0.20;0.20;;;2.80;99.90;;;;;;5107715;28;20032;-78
2022/01/16 07:24:26;;;;;;;0.20;0.20;;;2.90;99.90;;;;;;5124156;28;20040;-78
2022/01/16 07:26:54;;;;;;;0.10;0.10;;;2.90;99.90;;;;;;5103014;28;20070;-79
2022/01/16 07:29:21;;;;;;;0.13;0.13;;;2.90;99.90;;;;;;5107662;28;20049;-79
2022/01/16 07:31:48;;;;;;;1.17;0.65;;;2.90;99.90;;;;;;5141639;28;20032;-78
2022/01/16 07:34:15;;;;;;;0.10;0.10;;;2.90;99.90;;;;;;5140860;28;20461;-78
2022/01/16 07:36:41;;;;;;;0.10;0.10;;;2.90;99.90;;;;;;5141694;28;20139;-77
2022/01/16 07:39:08;;;;;;;0.10;0.10;;;3.10;99.90;;;;;;5115751;28;20069;-77
2022/01/16 07:41:35;;;;;;;0.20;0.20;;;2.90;99.90;;;;;;5127738;28;20039;-79
2022/01/16 07:44:01;;;;;;;0.13;0.13;;;3.00;99.90;;;;;;5144795;28;20040;-79
2022/01/16 07:46:28;;;;;;;0.10;0.10;;;3.10;99.90;;;;;;5152875;28;20039;-77
2022/01/16 07:48:55;;;;;;;0.10;0.10;;;3.00;99.90;;;;;;5128826;28;20515;-79
2022/01/16 07:51:24;;;;;;;0.10;0.10;;;3.00;99.90;;;;;;5154800;27;20039;-76
2022/01/16 07:53:55;;;;;;;0.13;0.13;;;3.10;99.90;;;;;;5158548;27;20036;-79
2022/01/16 07:56:22;;;;;;;0.10;0.10;;;3.70;99.90;;;;;;5131122;28;20046;-78
2022/01/16 07:58:49;;;;;;;0.13;0.13;;;3.20;99.90;;;;;;5154107;27;20127;-77
2022/01/16 08:01:15;;;;;;;0.10;0.10;;;3.20;99.90;;;;;;5096976;28;20039;-77
2022/01/16 08:03:42;;;;;;;0.10;0.10;;;3.20;99.90;;;;;;5148176;28;20062;-79
2022/01/16 08:06:10;;;;;;;0.20;0.20;;;3.20;99.90;;;;;;5130681;28;20081;-79
2022/01/16 08:08:37;;;;;;;0.10;0.10;;;3.90;99.90;;;;;;5130430;28;20043;-79
2022/01/16 08:11:04;;;;;;;0.10;0.10;;;3.20;99.90;;;;;;5144664;28;20039;-77
2022/01/16 08:13:31;;;;;;;0.22;0.22;;;3.30;99.90;;;;;;5146744;28;20049;-80
2022/01/16 08:15:58;;;;;;;0.10;0.10;;;3.20;99.90;;;;;;5134957;28;20035;-78
2022/01/16 08:18:24;;;;;;;0.10;0.10;;;3.30;99.90;;;;;;5130256;28;20071;-80
2022/01/16 08:20:51;;;;;;;0.10;0.10;;;3.40;99.90;;;;;;5114531;28;20031;-78
2022/01/16 08:23:21;;;;;;;0.10;0.10;;;3.30;99.90;;;;;;5130566;28;20506;-79
2022/01/16 08:25:47;;;;;;;1.20;0.85;;;3.40;99.90;;;;;;5131351;28;20523;-78
2022/01/16 08:28:15;;;;;;;0.10;0.10;;;3.40;99.90;;;;;;5131447;28;20172;-78
2022/01/16 08:30:42;;;;;;;0.10;0.10;;;3.40;99.90;;;;;;5131448;28;20059;-80
2022/01/16 08:33:09;;;;;;;0.10;0.10;;;3.50;99.90;;;;;;5098464;28;20043;-79
2022/01/16 08:35:36;;;;;;;0.17;0.17;;;3.50;99.90;;;;;;5130741;28;20039;-81
2022/01/16 08:38:03;;;;;;;0.10;0.10;;;3.50;99.90;;;;;;5148283;28;20040;-79
2022/01/16 08:40:30;;;;;;;0.10;0.10;;;4.00;99.90;;;;;;5113971;28;20039;-80
2022/01/16 08:42:57;;;;;;;0.10;0.10;;;4.00;99.90;;;;;;5113852;28;20073;-80
2022/01/16 08:45:24;;;;;;;0.43;0.32;;;3.60;99.90;;;;;;5141884;27;20804;-80
2022/01/16 08:47:50;;;;;;;0.10;0.10;;;3.60;99.90;;;;;;5105237;28;20035;-80
2022/01/16 08:50:17;;;;;;;0.20;0.20;;;3.80;99.90;;;;;;5130932;27;20160;-78
2022/01/16 08:52:45;;;;;;;0.10;0.10;;;4.10;99.90;;;;;;5120399;28;20039;-80
2022/01/16 08:55:12;;;;;;;0.10;0.10;;;4.20;99.90;;;;;;5147625;28;20036;-78
2022/01/16 08:57:39;;;;;;;0.10;0.10;;;4.10;99.90;;;;;;5130194;28;20061;-80
2022/01/16 09:00:07;;;;;;;0.10;0.10;;;4.40;99.90;;;;;;5129961;28;20036;-80
2022/01/16 09:02:34;;;;;;;0.20;0.20;;;3.90;99.90;;;;;;5096979;28;20400;-79
2022/01/16 09:05:02;;;;;;;0.10;0.10;;;4.50;99.90;;;;;;5130876;28;20043;-80
2022/01/16 09:07:28;;;;;;;0.10;0.10;;;3.90;99.90;;;;;;5130662;28;20044;-80
2022/01/16 09:09:57;;;;;;;0.10;0.10;;;4.00;99.90;;;;;;5127631;28;20047;-79
2022/01/16 09:12:24;;;;;;;0.10;0.10;;;4.00;99.90;;;;;;5096803;28;20080;-79
2022/01/16 09:14:51;;;;;;;0.10;0.10;;;4.00;99.90;;;;;;5107334;28;20044;-79
2022/01/16 09:17:18;;;;;;;0.10;0.10;;;4.00;99.90;;;;;;5126939;28;20063;-80
2022/01/16 09:19:46;;;;;;;0.20;0.20;;;4.10;99.90;;;;;;5110002;28;20071;-79
2022/01/16 09:22:12;;;;;;;0.10;0.10;;;4.20;99.90;;;;;;5135240;28;20150;-79
2022/01/16 09:24:39;;;;;;;0.20;0.20;;;4.10;99.90;;;;;;5126400;28;20127;-79
2022/01/16 09:27:06;;;;;;;0.10;0.10;;;4.20;99.90;;;;;;5109914;28;20055;-79
2022/01/16 09:29:33;;;;;;;0.10;0.10;;;4.20;99.90;;;;;;5109482;28;20044;-79
2022/01/16 09:32:00;;;;;;;0.73;0.38;;;4.30;99.90;;;;;;5093509;28;20667;-78
2022/01/16 09:34:27;;;;;;;0.10;0.10;;;4.40;99.90;;;;;;5109352;28;20069;-78
2022/01/16 09:36:54;;;;;;;0.20;0.20;;;4.40;99.90;;;;;;5095836;28;20040;-80
2022/01/16 09:39:21;;;;;;;0.10;0.10;;;4.40;99.90;;;;;;5133757;28;20503;-80
2022/01/16 09:41:48;;;;;;;0.10;0.10;;;4.50;99.90;;;;;;5129707;28;20135;-80
2022/01/16 09:44:17;;;;;;;0.10;0.10;;;4.50;99.90;;;;;;5128741;28;20472;-78
2022/01/16 09:46:44;;;;;;;0.10;0.10;;;4.70;99.90;;;;;;5127820;28;20039;-78
2022/01/16 09:49:11;;;;;;;0.10;0.10;;;4.70;99.90;;;;;;5111781;28;20039;-78
2022/01/16 09:51:37;;;;;;;0.20;0.20;;;4.70;99.90;;;;;;5127920;28;20515;-81
2022/01/16 09:54:05;;;;;;;0.20;0.20;;;4.90;99.90;;;;;;5129788;28;20035;-79
2022/01/16 09:56:31;;;;;;;0.10;0.10;;;4.90;99.90;;;;;;5129420;28;20492;-79
2022/01/16 09:58:58;;;;;;;0.20;0.20;;;5.10;99.90;;;;;;5112242;28;20172;-81
2022/01/16 10:01:28;;;;;;;0.50;0.50;;;4.90;99.90;;;;;;5127710;28;20043;-80
2022/01/16 10:03:55;;;;;;;0.10;0.10;;;5.00;99.90;;;;;;5128044;28;20373;-78
2022/01/16 10:06:24;;;;;;;0.10;0.10;;;5.10;99.90;;;;;;5128668;28;20047;-78
2022/01/16 10:08:55;;;;;;;0.10;0.10;;;5.10;99.90;;;;;;5146226;28;20059;-78
2022/01/16 10:11:33;;;;;;;0.10;0.10;;;5.20;99.90;;;;;;5144947;28;20043;-80
2022/01/16 10:14:08;;;;;;;0.10;0.10;;;5.20;99.90;;;;;;5129099;28;20043;-79
2022/01/16 10:16:40;;;;;;;0.10;0.10;;;5.20;99.90;;;;;;5128165;28;20039;-80
2022/01/16 10:19:19;;;;;;;0.13;0.13;;;5.20;99.90;;;;;;5128530;28;20035;-80
2022/01/16 10:21:46;;;;;;;0.10;0.10;;;6.10;99.90;;;;;;5144625;28;20090;-79
2022/01/16 10:24:16;;;;;;;0.10;0.10;;;5.40;99.90;;;;;;5129007;28;20047;-80
2022/01/16 10:26:43;;;;;;;0.10;0.10;;;5.30;99.90;;;;;;5127392;28;20053;-78
2022/01/16 10:29:19;;;;;;;0.10;0.10;;;5.40;99.90;;;;;;5146102;28;20047;-80
2022/01/16 10:31:46;;;;;;;;;;;5.40;99.90;;;;;;5145277;28;20112;-79
2022/01/16 10:34:26;;;;;;;0.10;0.10;;;5.30;99.90;;;;;;5128355;28;20673;-80
2022/01/16 10:36:53;;;;;;;0.10;0.10;;;5.30;99.90;;;;;;5127882;28;20045;-80
2022/01/16 10:39:20;;;;;;;0.10;0.10;;;5.40;99.90;;;;;;5128266;28;20046;-79
2022/01/16 10:42:14;;;;;;;0.00;0.00;;;5.30;99.90;;;;;;5128434;28;20065;-79
2022/01/16 10:44:41;;;;;;;0.10;0.10;;;5.30;99.90;;;;;;5127745;28;20038;-80
2022/01/16 10:47:31;;;;;;;0.00;0.00;;;5.40;99.90;;;;;;5127916;28;20044;-80
2022/01/16 10:50:09;;;;;;;0.10;0.10;;;5.40;99.90;;;;;;5128262;28;20034;-79
2022/01/16 10:52:59;;;;;;;0.40;0.40;;;5.40;99.90;;;;;;5159056;28;20560;-80
2022/01/16 10:55:40;;;;;;;0.10;0.10;;;5.40;99.90;;;;;;5127947;28;20778;-80
2022/01/16 10:58:15;;;;;;;0.10;0.10;;;5.40;99.90;;;;;;5130622;28;20034;-80
2022/01/16 11:00:53;;;;;;;0.08;0.08;;;5.40;99.90;;;;;;5150896;28;20590;-80
2022/01/16 11:03:22;;;;;;;0.35;0.35;;;5.40;99.90;;;;;;5110989;28;20044;-80
2022/01/16 11:05:50;;;;;;;0.20;0.20;;;5.40;99.90;;;;;;5128012;28;20044;-79
2022/01/16 11:08:19;;;;;;;0.10;0.10;;;5.40;99.90;;;;;;5110947;28;20132;-78
2022/01/16 11:10:56;;;;;;;0.10;0.10;;;5.50;99.90;;;;;;5093221;28;20047;-80
2022/01/16 11:13:30;;;;;;;0.00;0.00;;;5.50;99.90;;;;;;5154718;28;20044;-79
2022/01/16 11:16:03;;;;;;;0.08;0.08;;;5.50;99.90;;;;;;5127836;28;20054;-80
2022/01/16 11:18:32;;;;;;;0.10;0.10;;;5.60;99.90;;;;;;5127467;28;20050;-78
2022/01/16 11:26:23;;;;;;;0.10;0.10;;;5.70;99.90;;;;;;5149062;28;20062;-79
2022/01/16 11:28:55;;;;;;;0.10;0.10;;;5.90;99.90;;;;;;5131100;28;20493;-78
2022/01/16 11:31:23;;;;;;;0.10;0.10;;;6.10;99.90;;;;;;5132249;28;20123;-80
2022/01/16 11:33:52;;;;;;;0.13;0.13;;;5.80;99.90;;;;;;5148224;27;20511;-80
2022/01/16 11:36:25;;;;;;;0.00;0.00;;;5.80;99.90;;;;;;5115150;28;20930;-80
2022/01/16 11:39:06;;;;;;;0.10;0.10;;;5.80;99.90;;;;;;5148357;28;20082;-80
2022/01/16 11:41:38;;;;;;;0.10;0.10;;;5.80;99.90;;;;;;5148435;28;20503;-79
2022/01/16 11:44:07;;;;;;;0.10;0.10;;;5.90;99.90;;;;;;5156400;27;20067;-78
2022/01/16 11:46:48;;;;;;;0.10;0.10;;;5.90;99.90;;;;;;5131732;28;20126;-79
2022/01/16 11:49:19;;;;;;;0.30;0.30;;;5.90;99.90;;;;;;5131485;28;20127;-80
2022/01/16 11:51:51;;;;;;;0.10;0.10;;;5.90;99.90;;;;;;5148671;28;20044;-79
2022/01/16 11:54:31;;;;;;;0.10;0.10;;;6.00;99.90;;;;;;5148245;28;20047;-79
2022/01/16 11:57:04;;;;;;;0.10;0.10;;;6.00;99.90;;;;;;5131138;28;20039;-80
2022/01/16 11:59:33;;;;;;;0.00;0.00;;;6.00;99.90;;;;;;5162165;27;20100;-79
2022/01/16 12:02:07;;;;;;;3.97;0.90;;;6.00;99.90;;;;;;5147975;28;20040;-78
2022/01/16 12:04:43;;;;;;;0.10;0.10;;;6.00;99.90;;;;;;5131194;28;20072;-78
2022/01/16 12:07:13;;;;;;;;;;;5.90;99.90;;;;;;5132295;28;20798;-78
2022/01/16 12:09:47;;;;;;;0.10;0.10;;;6.10;99.90;;;;;;5130656;28;20014;-79
2022/01/16 12:12:14;;;;;;;0.10;0.10;;;6.10;99.90;;;;;;5131306;28;20039;-80
2022/01/16 12:15:01;;;;;;;0.10;0.10;;;6.10;99.90;;;;;;5130790;28;20383;-78
2022/01/16 12:17:39;;;;;;;0.10;0.10;;;6.10;99.90;;;;;;5131322;28;20039;-77
2022/01/16 12:20:15;;;;;;;0.00;0.00;;;6.10;99.90;;;;;;5131581;28;20043;-79
2022/01/16 12:22:53;;;;;;;0.38;0.30;;;6.10;99.90;;;;;;5147548;28;20040;-78
2022/01/16 12:25:27;;;;;;;0.32;0.20;;;6.10;99.90;;;;;;5150036;27;20813;-78
2022/01/16 12:28:09;;;;;;;0.10;0.10;;;6.10;99.90;;;;;;5110008;28;20056;-78
2022/01/16 12:30:59;;;;;;;0.10;0.10;;;6.10;99.90;;;;;;5110597;28;20044;-78
2022/01/16 12:33:44;;;;;;;0.20;0.20;;;6.30;99.90;;;;;;5127262;28;20044;-79
2022/01/16 12:36:19;;;;;;;0.00;0.00;;;6.10;99.90;;;;;;5110299;28;20040;-79
2022/01/16 12:38:53;;;;;;;0.10;0.10;;;6.20;99.90;;;;;;5106647;28;20036;-79
2022/01/16 12:41:30;;;;;;;0.10;0.10;;;6.10;99.90;;;;;;5144511;28;20382;-79
2022/01/16 12:44:17;;;;;;;0.10;0.10;;;6.20;99.90;;;;;;5109840;28;20049;-80
2022/01/16 12:46:45;;;;;;;0.10;0.10;;;6.10;99.90;;;;;;5160585;27;20076;-79
2022/01/16 12:49:17;;;;;;;0.10;0.10;;;6.20;99.90;;;;;;5144278;28;20047;-79
2022/01/16 12:51:46;;;;;;;0.00;0.00;;;6.10;99.90;;;;;;5160169;27;20119;-80
2022/01/16 12:54:19;;;;;;;0.08;0.08;;;6.20;99.90;;;;;;5119646;28;20043;-80
2022/01/16 12:56:46;;;;;;;1.75;0.32;;;6.10;99.90;;;;;;5130524;28;20075;-79
2022/01/16 12:59:25;;;;;;;0.00;0.00;;;6.30;99.90;;;;;;5150857;27;20058;-79
2022/01/16 13:01:58;;;;;;;0.00;0.00;;;6.10;99.90;;;;;;5125681;28;20036;-80
2022/01/16 13:04:30;;;;;;;0.30;0.25;;;6.20;99.90;;;;;;5146917;28;20031;-80
2022/01/16 13:06:59;;;;;;;0.20;0.20;;;6.20;99.90;;;;;;5129672;28;20043;-78
2022/01/16 13:09:28;;;;;;;0.10;0.10;;;6.20;99.90;;;;;;5154042;27;20031;-80
2022/01/16 13:11:59;;;;;;;0.10;0.10;;;6.20;99.90;;;;;;5146718;28;20396;-79
2022/01/16 13:14:34;;;;;;;0.10;0.10;;;6.20;99.90;;;;;;5147624;28;20043;-78
2022/01/16 13:17:05;;;;;;;0.15;0.13;;;6.20;99.90;;;;;;5163997;27;20098;-78
2022/01/16 13:22:15;;;;;;;0.10;0.10;;;6.20;99.90;;;;;;5147567;28;20039;-80
2022/01/16 13:24:55;;;;;;;0.10;0.10;;;6.20;99.90;;;;;;5130356;27;20092;-80
2022/01/16 13:27:27;;;;;;;0.00;0.00;;;6.20;99.90;;;;;;5147181;28;20130;-80
2022/01/16 13:30:01;;;;;;;0.10;0.10;;;6.20;99.90;;;;;;5146493;28;20543;-78
2022/01/16 13:32:33;;;;;;;0.10;0.10;;;6.20;99.90;;;;;;5130117;28;20043;-78
2022/01/16 13:35:02;;;;;;;0.10;0.10;;;6.20;99.90;;;;;;5129619;28;20044;-79
2022/01/16 13:37:32;;;;;;;0.00;0.00;;;6.20;99.90;;;;;;5109697;28;20036;-79
2022/01/16 13:40:13;;;;;;;0.08;0.08;;;6.20;99.90;;;;;;5152261;27;20500;-78
2022/01/16 13:45:26;;;;;;;0.10;0.10;;;6.20;99.90;;;;;;5130224;28;20043;-79
2022/01/16 13:48:12;;;;;;;0.10;0.10;;;6.20;99.90;;;;;;5156786;27;20035;-80
2022/01/16 13:50:49;;;;;;;0.10;0.10;;;6.20;99.90;;;;;;5154060;27;20161;-78
2022/01/16 13:53:22;;;;;;;0.08;0.08;;;6.20;99.90;;;;;;5145496;28;20043;-78
2022/01/16 13:55:50;;;;;;;0.10;0.10;;;6.10;99.90;;;;;;5140412;28;20113;-80
2022/01/16 13:58:23;;;;;;;0.10;0.10;;;6.20;99.90;;;;;;5129787;28;20039;-79
2022/01/16 14:00:51;;;;;;;0.10;0.10;;;6.10;99.90;;;;;;5128572;28;20041;-78
2022/01/16 14:03:21;;;;;;;0.10;0.10;;;6.10;99.90;;;;;;5112512;28;20032;-79